Time;durP1;ratioP1;P1;durP2;ratioP2;P2;SDS_P1;SDS_P2;PMS_P1;PMS_P2;Temp;Humidity;BMP_temperature;BMP_pressure;BME280_temperature;BME280_humidity;BME280_pressure;Samples;Min_cycle;Max_cycle;Signal;HPM_P1;HPM_P2
2022/11/15 07:34:51;;;;;;;;;;;11.70;99.90;12.00;98954.00;;;;355221;27;74872;-88
2022/11/15 07:35:03;;;;;;;;;;;11.60;99.90;12.00;98949.00;;;;351660;27;83289;-88
2022/11/15 07:35:15;;;;;;;;;;;11.60;99.90;12.00;98948.00;;;;348799;27;83809;-88
2022/11/15 07:35:27;;;;;;;;;;;11.60;99.90;12.00;98948.00;;;;348791;27;82487;-88
2022/11/15 07:35:39;;;;;;;;;;;11.60;99.90;12.00;98950.00;;;;345894;28;84911;-86
2022/11/15 07:35:50;;;;;;;;;;;11.60;99.90;12.00;98949.00;;;;347522;28;83307;-89
2022/11/15 07:36:03;;;;;;;;;;;11.60;99.90;12.00;98952.00;;;;346943;28;86861;-88
2022/11/15 07:36:15;;;;;;;;;;;11.60;99.90;12.00;98954.00;;;;348814;27;82549;-88
2022/11/15 07:36:27;;;;;;;;;;;11.60;99.90;12.00;98956.00;;;;347336;28;85033;-88
2022/11/15 07:36:38;;;;;;;;;;;11.60;99.90;12.00;98948.00;;;;347409;28;83340;-88
2022/11/15 07:36:50;;;;;;;;;;;11.60;99.90;12.00;98947.00;;;;348369;27;83800;-88
2022/11/15 07:37:02;;;;;;;;;;;11.60;99.90;12.00;98949.00;;;;347377;28;82463;-88
2022/11/15 07:37:14;;;;;;;;;;;11.60;99.90;12.00;98947.00;;;;347083;28;84484;-88
2022/11/15 07:37:26;;;;;;;;;;;11.60;99.90;12.00;98946.00;;;;347435;28;83380;-88
2022/11/15 07:37:38;;;;;;;;;;;11.60;99.90;12.00;98949.00;;;;347313;28;85234;-89
2022/11/15 07:37:56;;;;;;;;;;;11.60;99.90;12.00;98946.00;;;;347473;28;83394;-89
2022/11/15 07:38:08;;;;;;;;;;;11.60;99.90;12.00;98948.00;;;;348378;27;85963;-89
2022/11/15 07:38:20;;;;;;;;;;;11.60;99.90;12.00;98946.00;;;;347271;28;83402;-88
2022/11/15 07:38:32;;;;;;;;;;;11.70;99.90;12.00;98944.00;;;;347300;28;85353;-89
2022/11/15 07:38:51;;;;;;;;;;;11.60;99.90;12.00;98949.00;;;;345031;28;83416;-88
2022/11/15 07:39:03;;;;;;;;;;;11.60;99.90;12.00;98944.00;;;;347249;28;83987;-88
2022/11/15 07:39:15;;;;;;;;;;;11.60;99.90;12.00;98947.00;;;;348773;27;82410;-88
2022/11/15 07:39:27;;;;;;;;;;;11.70;99.90;12.00;98943.00;;;;349788;27;84764;-89
2022/11/15 07:39:39;;;;;;;;;;;11.60;99.90;12.00;98945.00;;;;348509;27;82665;-87
2022/11/15 07:39:50;;;;;;;;;;;11.70;99.90;12.00;98944.00;;;;347266;28;87511;-88
2022/11/15 07:40:02;;;;;;;;;;;11.60;99.90;12.00;98947.00;;;;348191;27;82556;-89
2022/11/15 07:40:14;;;;;;;;;;;11.60;99.90;12.00;98947.00;;;;348557;27;85170;-88
2022/11/15 07:40:29;;;;;;;;;;;11.60;99.90;12.00;98955.00;;;;348636;27;83440;-89
2022/11/15 07:40:41;;;;;;;;;;;11.60;99.90;12.00;98948.00;;;;349837;27;87755;-88
2022/11/15 07:41:00;;;;;;;;;;;11.70;99.90;12.00;98948.00;;;;347115;28;83531;-88
2022/11/15 07:41:12;;;;;;;;;;;11.70;99.90;12.00;98946.00;;;;348474;27;85348;-88
2022/11/15 07:41:24;;;;;;;;;;;11.60;99.90;12.00;98950.00;;;;351293;27;82625;-89
2022/11/15 07:41:35;;;;;;;;;;;11.70;99.90;12.00;98953.00;;;;348327;27;86780;-88
2022/11/15 07:41:49;;;;;;;;;;;11.70;99.90;12.00;98941.00;;;;347366;28;82393;-88
2022/11/15 07:43:05;;;;;;;;;;;11.70;99.90;12.00;98945.00;;;;347310;28;88297;-88
2022/11/15 07:43:17;;;;;;;;;;;11.70;99.90;12.10;98946.00;;;;347775;28;82452;-88
2022/11/15 07:43:29;;;;;;;;;;;11.70;99.90;12.00;98944.00;;;;350376;27;86109;-88
2022/11/15 07:43:41;;;;;;;;;;;11.70;99.90;12.10;98947.00;;;;350416;27;83288;-88
2022/11/15 07:43:53;;;;;;;;;;;11.70;99.90;12.10;98937.00;;;;350472;27;84280;-88
2022/11/15 07:44:05;;;;;;;;;;;11.70;99.90;12.10;98940.00;;;;348752;27;82703;-89
2022/11/15 07:44:17;;;;;;;;;;;11.70;99.90;12.10;98940.00;;;;347324;28;87220;-88
2022/11/15 07:44:28;;;;;;;;;;;11.70;99.90;12.10;98941.00;;;;347736;28;83434;-89
2022/11/15 07:44:40;;;;;;;;;;;11.70;99.90;12.10;98945.00;;;;346417;28;83850;-88
2022/11/15 07:44:52;;;;;;;;;;;11.70;99.90;12.10;98936.00;;;;346240;28;82494;-88
2022/11/15 07:45:05;;;;;;;;;;;11.70;99.90;12.10;98940.00;;;;345945;28;85430;-89
2022/11/15 07:45:16;;;;;;;;;;;11.70;99.90;12.10;98938.00;;;;350041;27;82691;-89
2022/11/15 07:45:28;;;;;;;;;;;11.70;99.90;12.10;98938.00;;;;348306;27;84534;-89
2022/11/15 07:45:43;;;;;;;;;;;11.80;99.90;12.10;98938.00;;;;348773;27;83413;-88
2022/11/15 07:45:55;;;;;;;;;;;11.80;99.90;12.10;98939.00;;;;345947;28;82513;-88
2022/11/15 07:46:10;;;;;;;;;;;11.80;99.90;12.10;98938.00;;;;347241;28;83122;-89
2022/11/15 07:46:22;;;;;;;;;;;11.80;99.90;12.10;98942.00;;;;347021;28;87694;-88
2022/11/15 07:46:34;;;;;;;;;;;11.80;99.90;12.10;98937.00;;;;347225;28;82520;-89
2022/11/15 07:46:45;;;;;;;;;;;11.80;99.90;12.10;98941.00;;;;345907;28;83890;-88
2022/11/15 07:46:57;;;;;;;;;;;11.80;99.90;12.10;98937.00;;;;346034;28;83397;-88
2022/11/15 07:47:09;;;;;;;;;;;11.80;99.90;12.10;98940.00;;;;346988;28;86435;-88
2022/11/15 07:47:21;;;;;;;;;;;11.80;99.90;12.20;98940.00;;;;348695;27;82545;-88
2022/11/15 07:47:33;;;;;;;;;;;11.80;99.90;12.10;98940.00;;;;347384;28;87383;-89
2022/11/15 07:47:48;;;;;;;;;;;11.80;99.90;12.10;98937.00;;;;347383;28;83370;-88
2022/11/15 07:48:00;;;;;;;;;;;11.80;99.90;12.20;98944.00;;;;346919;28;84322;-88
2022/11/15 07:48:12;;;;;;;;;;;11.80;99.90;12.20;98935.00;;;;345981;28;82507;-88
2022/11/15 07:48:24;;;;;;;;;;;11.80;99.90;12.10;98944.00;;;;345846;28;85453;-89
2022/11/15 07:48:36;;;;;;;;;;;11.80;99.90;12.20;98940.00;;;;348974;27;83532;-89
2022/11/15 07:48:55;;;;;;;;;;;11.80;99.90;12.20;98944.00;;;;348636;27;87889;-89
2022/11/15 07:49:07;;;;;;;;;;;11.80;99.90;12.20;98949.00;;;;347322;28;82455;-88
2022/11/15 07:49:18;;;;;;;;;;;11.80;99.90;12.20;98942.00;;;;345730;28;86219;-89
2022/11/15 07:49:30;;;;;;;;;;;11.80;99.90;12.20;98933.00;;;;347357;28;83186;-88
2022/11/15 07:49:42;;;;;;;;;;;11.80;99.90;12.20;98939.00;;;;349502;27;86552;-84
2022/11/15 07:49:53;;;;;;;;;;;11.80;99.90;12.20;98944.00;;;;348569;27;83411;-88
2022/11/15 07:50:05;;;;;;;;;;;11.90;99.90;12.20;98936.00;;;;348477;27;87218;-85
2022/11/15 07:50:17;;;;;;;;;;;11.90;99.90;12.20;98941.00;;;;348281;27;83588;-84
2022/11/15 07:50:30;;;;;;;;;;;11.90;99.90;12.20;98936.00;;;;348291;27;87410;-84
2022/11/15 07:50:42;;;;;;;;;;;11.90;99.90;12.20;98935.00;;;;347307;28;82489;-84
2022/11/15 07:50:54;;;;;;;;;;;11.90;99.90;12.20;98944.00;;;;347104;28;85292;-84
2022/11/15 07:51:06;;;;;;;;;;;11.90;99.90;12.20;98948.00;;;;345610;28;83587;-84
2022/11/15 07:51:24;;;;;;;;;;;11.90;99.90;12.20;98949.00;;;;345923;28;83858;-93
2022/11/15 07:51:36;;;;;;;;;;;11.90;99.90;12.30;98939.00;;;;346647;28;82577;-92
2022/11/15 07:51:48;;;;;;;;;;;11.90;99.90;12.30;98946.00;;;;347312;28;85731;-93
2022/11/15 07:52:00;;;;;;;;;;;11.90;99.90;12.30;98946.00;;;;348874;28;82457;-91
2022/11/15 07:52:12;;;;;;;;;;;11.90;99.90;12.30;98938.00;;;;346743;28;83503;-86
2022/11/15 07:52:24;;;;;;;;;;;11.90;99.90;12.30;98947.00;;;;346274;28;82519;-88
2022/11/15 07:52:36;;;;;;;;;;;11.90;99.90;12.30;98952.00;;;;347724;28;83883;-87
2022/11/15 07:52:50;;;;;;;;;;;11.90;99.90;12.30;98939.00;;;;350966;27;82424;-86
2022/11/15 07:53:01;;;;;;;;;;;11.90;99.90;12.30;98942.00;;;;347568;28;86755;-87
2022/11/15 07:53:13;;;;;;;;;;;12.00;99.90;12.30;98948.00;;;;346557;28;82445;-89
2022/11/15 07:53:25;;;;;;;;;;;11.90;99.90;12.30;98937.00;;;;346961;28;86490;-86
2022/11/15 07:53:37;;;;;;;;;;;11.90;99.90;12.30;98949.00;;;;350546;27;82567;-85
2022/11/15 07:53:48;;;;;;;;;;;12.00;99.90;12.30;98945.00;;;;348919;27;84293;-92
2022/11/15 07:54:00;;;;;;;;;;;11.90;99.90;12.30;98949.00;;;;348908;28;82418;-92
2022/11/15 07:54:12;;;;;;;;;;;12.00;99.90;12.30;98950.00;;;;346379;28;84124;-92
2022/11/15 07:54:24;;;;;;;;;;;12.00;99.90;12.30;98942.00;;;;351896;27;82511;-90
2022/11/15 07:54:36;;;;;;;;;;;12.00;99.90;12.30;98942.00;;;;347428;28;84208;-90
2022/11/15 07:54:47;;;;;;;;;;;12.00;99.90;12.30;98943.00;;;;348465;28;83270;-89
2022/11/15 07:54:59;;;;;;;;;;;12.00;99.90;12.30;98943.00;;;;351048;27;83677;-88
2022/11/15 07:55:11;;;;;;;;;;;12.00;99.90;12.30;98938.00;;;;350240;27;82432;-89
2022/11/15 07:55:24;;;;;;;;;;;12.00;99.90;12.30;98945.00;;;;348702;28;84286;-90
2022/11/15 07:55:35;;;;;;;;;;;12.00;99.90;12.30;98948.00;;;;347575;28;82395;-89
2022/11/15 07:55:47;;;;;;;;;;;12.00;99.90;12.40;98947.00;;;;346656;28;84281;-86
2022/11/15 07:55:59;;;;;;;;;;;12.00;99.90;12.40;98955.00;;;;347959;28;83327;-88
2022/11/15 07:56:11;;;;;;;;;;;12.00;99.90;12.40;98942.00;;;;348847;27;86788;-86
2022/11/15 07:56:22;;;;;;;;;;;12.00;99.90;12.40;98946.00;;;;348880;27;83350;-89
2022/11/15 07:56:34;;;;;;;;;;;12.00;99.90;12.40;98949.00;;;;348572;27;83982;-89
2022/11/15 07:56:46;;;;;;;;;;;12.00;99.90;12.40;98942.00;;;;348406;27;82556;-86
2022/11/15 07:56:58;;;;;;;;;;;12.10;99.90;12.40;98945.00;;;;349940;27;84673;-87
2022/11/15 07:57:17;;;;;;;;;;;12.00;99.90;12.40;98950.00;;;;348514;27;82564;-86
2022/11/15 07:57:29;;;;;;;;;;;12.00;99.90;12.40;98947.00;;;;348508;27;86043;-86
2022/11/15 07:57:41;;;;;;;;;;;12.00;99.90;12.40;98956.00;;;;348429;27;83589;-87
2022/11/15 07:57:53;;;;;;;;;;;12.00;99.90;12.30;98949.00;;;;347059;28;84255;-86
2022/11/15 07:58:07;;;;;;;;;;;12.00;99.90;12.40;98951.00;;;;348041;27;83593;-87
2022/11/15 07:58:19;;;;;;;;;;;12.00;99.90;12.40;98945.00;;;;348576;27;82451;-87
2022/11/15 07:58:30;;;;;;;;;;;12.10;99.90;12.40;98955.00;;;;347083;28;83572;-87
2022/11/15 07:58:42;;;;;;;;;;;12.10;99.90;12.40;98952.00;;;;345684;28;84363;-87
2022/11/15 07:58:54;;;;;;;;;;;12.10;99.90;12.40;98945.00;;;;345907;28;82532;-87
2022/11/15 07:59:06;;;;;;;;;;;12.10;99.90;12.40;98953.00;;;;345650;28;83585;-86
2022/11/15 07:59:19;;;;;;;;;;;12.10;99.90;12.40;98943.00;;;;348590;27;82445;-87
2022/11/15 07:59:31;;;;;;;;;;;12.10;99.90;12.40;98957.00;;;;348447;27;87518;-86
2022/11/15 07:59:42;;;;;;;;;;;12.10;99.90;12.40;98950.00;;;;346143;28;83518;-85
2022/11/15 07:59:54;;;;;;;;;;;12.10;99.90;12.50;98951.00;;;;347113;28;85893;-86
2022/11/15 08:00:06;;;;;;;;;;;12.10;99.90;12.40;98949.00;;;;348562;27;83272;-87
2022/11/15 08:00:18;;;;;;;;;;;12.10;99.90;12.40;98949.00;;;;347046;28;86376;-87
2022/11/15 08:00:30;;;;;;;;;;;12.10;99.90;12.40;98957.00;;;;346832;28;83615;-87
2022/11/15 08:00:42;;;;;;;;;;;12.10;99.90;12.50;98953.00;;;;348027;27;87505;-87
2022/11/15 08:00:53;;;;;;;;;;;12.10;99.90;12.50;98941.00;;;;347218;28;82506;-87
2022/11/15 08:01:09;;;;;;;;;;;12.20;99.90;12.40;98950.00;;;;344267;28;84627;-87
2022/11/15 08:01:21;;;;;;;;;;;12.10;99.90;12.50;98955.00;;;;348574;27;83385;-87
2022/11/15 08:01:33;;;;;;;;;;;12.10;99.90;12.60;98950.00;;;;348408;27;86307;-87
2022/11/15 08:01:45;;;;;;;;;;;12.20;99.90;12.60;98951.00;;;;347111;28;82509;-87
2022/11/15 08:01:56;;;;;;;;;;;12.20;99.90;12.60;98948.00;;;;351129;27;86562;-86
2022/11/15 08:02:09;;;;;;;;;;;12.20;99.90;12.60;98947.00;;;;345789;28;83378;-87
2022/11/15 08:02:20;;;;;;;;;;;12.20;99.90;12.50;98957.00;;;;346804;28;86404;-86
2022/11/15 08:02:39;;;;;;;;;;;12.20;99.90;12.50;98964.00;;;;349698;27;83692;-86
2022/11/15 08:02:51;;;;;;;;;;;12.20;99.90;12.60;98955.00;;;;348482;27;87383;-87
2022/11/15 08:03:10;;;;;;;;;;;12.20;99.90;12.60;98952.00;;;;349507;27;83486;-87
2022/11/15 08:03:22;;;;;;;;;;;12.20;99.90;12.60;98960.00;;;;348251;27;88172;-87
2022/11/15 08:03:33;;;;;;;;;;;12.20;99.90;12.60;98956.00;;;;348382;27;82634;-87
2022/11/15 08:03:46;;;;;;;;;;;12.20;99.90;12.60;98958.00;;;;348329;27;87484;-87
2022/11/15 08:03:57;;;;;;;;;;;12.20;99.90;12.60;98955.00;;;;347294;28;83444;-87
2022/11/15 08:04:10;;;;;;;;;;;12.20;99.90;12.60;98958.00;;;;348585;27;84954;-87
2022/11/15 08:04:22;;;;;;;;;;;12.20;99.90;12.60;98943.00;;;;348518;27;82573;-86
2022/11/15 08:04:34;;;;;;;;;;;12.20;99.90;12.60;98949.00;;;;348364;27;86492;-86
2022/11/15 08:04:45;;;;;;;;;;;12.20;99.90;12.70;98949.00;;;;345801;28;82569;-87
2022/11/15 08:04:57;;;;;;;;;;;12.20;99.90;12.80;98946.00;;;;345684;28;83707;-87
2022/11/15 08:05:09;;;;;;;;;;;12.30;99.90;12.80;98942.00;;;;347138;28;82625;-87
2022/11/15 08:05:21;;;;;;;;;;;12.30;99.90;12.80;98950.00;;;;349694;27;86269;-87
2022/11/15 08:05:33;;;;;;;;;;;12.30;99.90;12.80;98959.00;;;;348564;27;83173;-87
2022/11/15 08:05:50;;;;;;;;;;;12.30;99.90;12.80;98950.00;;;;347068;28;84632;-86
2022/11/15 08:06:01;;;;;;;;;;;12.30;99.90;12.80;98947.00;;;;347252;28;83500;-88
2022/11/15 08:06:13;;;;;;;;;;;12.30;99.90;12.80;98947.00;;;;348326;27;85498;-87
2022/11/15 08:06:25;;;;;;;;;;;12.40;99.90;12.70;98951.00;;;;346844;28;83563;-87
2022/11/15 08:06:37;;;;;;;;;;;12.40;99.90;12.70;98958.00;;;;345585;28;86973;-87
2022/11/15 08:06:48;;;;;;;;;;;12.40;99.90;12.70;98950.00;;;;347231;28;83368;-87
2022/11/15 08:07:00;;;;;;;;;;;12.40;99.90;12.70;98960.00;;;;348198;27;86518;-92
2022/11/15 08:07:12;;;;;;;;;;;12.40;99.90;12.70;98954.00;;;;347363;28;83271;-86
2022/11/15 08:07:24;;;;;;;;;;;12.40;99.90;12.70;98952.00;;;;347204;28;83912;-88
2022/11/15 08:07:37;;;;;;;;;;;12.40;99.90;12.70;98959.00;;;;345763;28;82497;-87
2022/11/15 08:07:49;;;;;;;;;;;12.40;99.90;12.70;98956.00;;;;345531;28;86930;-85
2022/11/15 08:08:03;;;;;;;;;;;12.40;99.90;12.70;98954.00;;;;344401;28;83343;-87
2022/11/15 08:08:15;;;;;;;;;;;12.40;99.90;12.70;98950.00;;;;345393;28;83099;-86
2022/11/15 08:08:27;;;;;;;;;;;12.40;99.90;12.70;98952.00;;;;348143;27;83609;-87
2022/11/15 08:08:38;;;;;;;;;;;12.40;99.90;12.70;98951.00;;;;345821;28;83583;-87
2022/11/15 08:08:50;;;;;;;;;;;12.40;99.90;12.70;98952.00;;;;347223;28;82433;-86
2022/11/15 08:09:02;;;;;;;;;;;12.40;99.90;12.70;98955.00;;;;349636;27;85493;-86
2022/11/15 08:09:13;;;;;;;;;;;12.40;99.90;12.70;98950.00;;;;349943;27;82409;-86
2022/11/15 08:09:25;;;;;;;;;;;12.40;99.90;12.70;98957.00;;;;346984;28;84924;-87
2022/11/15 08:09:37;;;;;;;;;;;12.40;99.90;12.70;98957.00;;;;345745;28;82423;-86
2022/11/15 08:09:49;;;;;;;;;;;12.40;99.90;12.70;98954.00;;;;347024;28;87770;-86
2022/11/15 08:10:01;;;;;;;;;;;12.40;99.90;12.70;98954.00;;;;348637;27;83336;-87
2022/11/15 08:10:13;;;;;;;;;;;12.40;99.90;12.70;98958.00;;;;347204;28;82513;-87
2022/11/15 08:10:26;;;;;;;;;;;12.40;99.90;12.70;98956.00;;;;347207;28;83382;-87
2022/11/15 08:10:38;;;;;;;;;;;12.40;99.90;12.70;98956.00;;;;348231;27;86546;-88
2022/11/15 08:10:51;;;;;;;;;;;12.40;99.90;12.70;98956.00;;;;348338;27;82627;-87
2022/11/15 08:11:03;;;;;;;;;;;12.40;99.90;12.70;98953.00;;;;347079;28;86978;-88
2022/11/15 08:11:15;;;;;;;;;;;12.50;99.90;12.70;98952.00;;;;347108;28;83459;-87
2022/11/15 08:11:26;;;;;;;;;;;12.40;99.90;12.70;98955.00;;;;348121;27;86591;-88
2022/11/15 08:11:38;;;;;;;;;;;12.40;99.90;12.70;98946.00;;;;347220;28;83322;-87
2022/11/15 08:11:50;;;;;;;;;;;12.50;99.90;12.70;98949.00;;;;347026;28;84963;-87
2022/11/15 08:12:01;;;;;;;;;;;12.50;99.90;12.80;98953.00;;;;348513;27;83425;-86
2022/11/15 08:12:14;;;;;;;;;;;12.50;99.90;12.80;98944.00;;;;348152;27;86502;-87
2022/11/15 08:12:26;;;;;;;;;;;12.50;99.90;12.80;98952.00;;;;348319;27;83538;-86
2022/11/15 08:12:37;;;;;;;;;;;12.50;99.90;12.80;98955.00;;;;347064;28;83752;-85
2022/11/15 08:13:03;;;;;;;;;;;12.50;99.90;12.80;98957.00;;;;348544;27;83373;-86
2022/11/15 08:13:15;;;;;;;;;;;12.50;99.90;12.80;98954.00;;;;349587;27;87016;-85
2022/11/15 08:13:27;;;;;;;;;;;12.50;99.90;12.80;98953.00;;;;348540;27;83546;-86
2022/11/15 08:13:39;;;;;;;;;;;12.50;99.90;12.80;98958.00;;;;349860;27;86013;-86
2022/11/15 08:13:51;;;;;;;;;;;12.50;99.90;12.80;98957.00;;;;349845;27;82539;-86
2022/11/15 08:14:03;;;;;;;;;;;12.50;99.90;12.80;98959.00;;;;348571;27;86118;-86
2022/11/15 08:14:14;;;;;;;;;;;12.50;99.90;12.80;98950.00;;;;349984;27;83010;-85
2022/11/15 08:14:26;;;;;;;;;;;12.50;99.90;12.80;98955.00;;;;348390;27;87459;-86
2022/11/15 08:14:38;;;;;;;;;;;12.50;99.90;12.80;98955.00;;;;351341;27;83271;-85
2022/11/15 08:14:50;;;;;;;;;;;12.60;99.90;12.80;98955.00;;;;348448;27;87191;-85
2022/11/15 08:15:01;;;;;;;;;;;12.50;99.90;12.90;98951.00;;;;345738;28;83396;-85
2022/11/15 08:15:13;;;;;;;;;;;12.60;99.90;13.00;98942.00;;;;348436;27;87173;-85
2022/11/15 08:15:25;;;;;;;;;;;12.60;99.90;12.90;98943.00;;;;347154;28;82626;-86
2022/11/15 08:15:37;;;;;;;;;;;12.60;99.90;12.90;98951.00;;;;347936;27;85448;-85
2022/11/15 08:15:49;;;;;;;;;;;12.60;99.90;12.90;98946.00;;;;348505;27;83328;-87
2022/11/15 08:16:08;;;;;;;;;;;12.60;99.90;12.80;98950.00;;;;348463;27;86544;-86
2022/11/15 08:16:19;;;;;;;;;;;12.60;99.90;12.80;98949.00;;;;348443;27;83506;-84
2022/11/15 08:16:32;;;;;;;;;;;12.60;99.90;12.80;98943.00;;;;348081;27;88230;-86
2022/11/15 08:16:43;;;;;;;;;;;12.60;99.90;12.80;98940.00;;;;346968;28;83417;-86
2022/11/15 08:16:55;;;;;;;;;;;12.60;99.90;12.90;98943.00;;;;348542;27;85445;-85
2022/11/15 08:17:07;;;;;;;;;;;12.60;99.90;13.00;98951.00;;;;348552;27;83294;-85
2022/11/15 08:17:19;;;;;;;;;;;12.60;99.90;13.00;98941.00;;;;348284;27;87464;-85
2022/11/15 08:17:32;;;;;;;;;;;12.60;99.90;12.90;98948.00;;;;347275;28;82374;-86
2022/11/15 08:17:44;;;;;;;;;;;12.60;99.90;13.00;98944.00;;;;348396;27;83510;-86
2022/11/15 08:18:00;;;;;;;;;;;12.60;99.90;13.00;98948.00;;;;348303;27;83569;-86
2022/11/15 08:18:14;;;;;;;;;;;12.60;99.90;13.00;98943.00;;;;347087;28;85435;-86
2022/11/15 08:18:25;;;;;;;;;;;12.70;99.90;13.00;98948.00;;;;348006;27;83610;-85
2022/11/15 08:18:37;;;;;;;;;;;12.70;99.90;13.00;98952.00;;;;349549;27;85678;-85
2022/11/15 08:18:49;;;;;;;;;;;12.70;99.90;13.00;98952.00;;;;348438;27;82672;-85
2022/11/15 08:19:01;;;;;;;;;;;12.70;99.90;12.90;98942.00;;;;349904;27;85331;-85
2022/11/15 08:19:12;;;;;;;;;;;12.70;99.90;13.00;98942.00;;;;347140;28;83575;-85
2022/11/15 08:19:24;;;;;;;;;;;12.70;99.90;13.00;98946.00;;;;349519;27;86583;-85
2022/11/15 08:19:35;;;;;;;;;;;12.70;99.90;13.00;98949.00;;;;349784;27;82561;-85
2022/11/15 08:19:47;;;;;;;;;;;12.70;99.90;13.10;98948.00;;;;348429;27;84853;-85
2022/11/15 08:19:59;;;;;;;;;;;12.70;99.90;13.10;98943.00;;;;348618;27;83455;-85
2022/11/15 08:20:11;;;;;;;;;;;12.70;99.90;13.10;98945.00;;;;347007;28;86789;-86
2022/11/15 08:20:23;;;;;;;;;;;12.70;99.90;13.10;98939.00;;;;347146;28;83213;-86
2022/11/15 08:20:35;;;;;;;;;;;12.70;99.90;13.10;98941.00;;;;349456;27;87285;-85
2022/11/15 08:20:46;;;;;;;;;;;12.70;99.90;13.10;98941.00;;;;348548;27;82564;-86
2022/11/15 08:20:59;;;;;;;;;;;12.80;99.90;13.10;98943.00;;;;347149;28;85197;-86
2022/11/15 08:21:18;;;;;;;;;;;12.80;99.90;13.20;98939.00;;;;346964;28;83455;-85
2022/11/15 08:21:30;;;;;;;;;;;12.80;99.90;13.10;98946.00;;;;348473;27;84918;-85
2022/11/15 08:21:42;;;;;;;;;;;12.80;99.90;13.10;98949.00;;;;348605;27;83380;-85
2022/11/15 08:21:53;;;;;;;;;;;12.80;99.90;13.10;98941.00;;;;348426;27;85260;-85
2022/11/15 08:22:05;;;;;;;;;;;12.80;99.90;13.10;98942.00;;;;347172;28;83402;-85
2022/11/15 08:22:17;;;;;;;;;;;12.80;99.90;13.10;98941.00;;;;348194;27;88035;-85
2022/11/15 08:22:29;;;;;;;;;;;12.80;99.90;13.10;98940.00;;;;348444;27;83555;-86
2022/11/15 08:22:41;;;;;;;;;;;12.80;99.90;13.00;98936.00;;;;347159;28;84978;-85
2022/11/15 08:22:52;;;;;;;;;;;12.80;99.90;13.00;98934.00;;;;349608;27;83650;-85
2022/11/15 08:23:04;;;;;;;;;;;12.80;99.90;13.00;98941.00;;;;348519;27;85089;-85
2022/11/15 08:23:16;;;;;;;;;;;12.80;99.90;13.00;98942.00;;;;348619;27;82480;-85
2022/11/15 08:23:27;;;;;;;;;;;12.80;99.90;13.10;98942.00;;;;348168;27;86470;-85
2022/11/15 08:23:40;;;;;;;;;;;12.80;99.90;13.10;98945.00;;;;345718;28;83268;-85
2022/11/15 08:23:51;;;;;;;;;;;12.80;99.90;13.00;98933.00;;;;349728;27;86263;-85
2022/11/15 08:24:03;;;;;;;;;;;12.80;99.90;13.10;98951.00;;;;348543;27;83316;-85
2022/11/15 08:24:15;;;;;;;;;;;12.80;99.90;13.20;98939.00;;;;348109;27;86714;-85
2022/11/15 08:24:27;;;;;;;;;;;12.80;99.90;13.20;98942.00;;;;345627;28;83533;-85
2022/11/15 08:24:38;;;;;;;;;;;12.80;99.90;13.20;98945.00;;;;345632;28;87175;-85
2022/11/15 08:24:50;;;;;;;;;;;12.80;99.90;13.20;98937.00;;;;347095;28;82475;-85
2022/11/15 08:25:02;;;;;;;;;;;12.80;99.90;13.10;98949.00;;;;346821;28;86395;-85
2022/11/15 08:25:14;;;;;;;;;;;12.80;99.90;13.10;98941.00;;;;347230;28;83343;-86
2022/11/15 08:25:27;;;;;;;;;;;12.80;99.90;13.20;98941.00;;;;345752;28;86415;-86
2022/11/15 08:25:39;;;;;;;;;;;12.80;99.90;13.20;98936.00;;;;346827;28;82712;-85
2022/11/15 08:25:50;;;;;;;;;;;12.80;99.90;13.20;98953.00;;;;348336;27;87181;-85
2022/11/15 08:26:03;;;;;;;;;;;12.80;99.90;13.20;98947.00;;;;347299;28;82475;-85
2022/11/15 08:26:14;;;;;;;;;;;12.80;99.90;13.20;98946.00;;;;347035;28;87570;-85
2022/11/15 08:26:28;;;;;;;;;;;12.80;99.90;13.10;98942.00;;;;345738;28;83595;-86
2022/11/15 08:26:40;;;;;;;;;;;12.80;99.90;13.10;98945.00;;;;348447;27;87450;-85
2022/11/15 08:26:52;;;;;;;;;;;12.80;99.90;13.10;98942.00;;;;348211;27;83520;-85
2022/11/15 08:27:04;;;;;;;;;;;12.80;99.90;13.10;98949.00;;;;347014;28;87183;-85
2022/11/15 08:27:16;;;;;;;;;;;12.80;99.90;13.10;98944.00;;;;344396;28;82326;-86
2022/11/15 08:27:28;;;;;;;;;;;12.80;99.90;13.10;98945.00;;;;347093;28;84370;-86
2022/11/15 08:27:40;;;;;;;;;;;12.90;99.90;13.10;98944.00;;;;346969;28;83556;-85
2022/11/15 08:27:53;;;;;;;;;;;12.80;99.90;13.10;98942.00;;;;348132;27;86793;-85
2022/11/15 08:28:05;;;;;;;;;;;12.80;99.90;13.10;98948.00;;;;345527;28;83622;-86
2022/11/15 08:28:17;;;;;;;;;;;12.80;99.90;13.20;98944.00;;;;347055;28;86193;-85
2022/11/15 08:28:29;;;;;;;;;;;12.90;99.90;13.20;98943.00;;;;349876;27;82549;-86
2022/11/15 08:28:41;;;;;;;;;;;12.90;99.90;13.20;98942.00;;;;347076;28;84785;-85
2022/11/15 08:28:52;;;;;;;;;;;12.90;99.90;13.30;98947.00;;;;349677;27;83316;-86
2022/11/15 08:29:04;;;;;;;;;;;12.90;99.90;13.30;98944.00;;;;347086;28;84818;-85
2022/11/15 08:29:16;;;;;;;;;;;12.90;99.90;13.20;98939.00;;;;347161;28;83231;-85
2022/11/15 08:29:28;;;;;;;;;;;12.90;99.90;13.20;98940.00;;;;348554;27;84749;-85
2022/11/15 08:29:43;;;;;;;;;;;12.90;99.90;13.20;98941.00;;;;347108;28;83533;-85
2022/11/15 08:29:56;;;;;;;;;;;12.90;99.90;13.20;98941.00;;;;348441;27;86509;-85
2022/11/15 08:30:11;;;;;;;;;;;12.90;99.90;13.10;98947.00;;;;345695;28;82537;-86
2022/11/15 08:30:22;;;;;;;;;;;12.90;99.90;13.10;98941.00;;;;345606;28;86469;-85
2022/11/15 08:30:36;;;;;;;;;;;12.90;99.90;13.10;98938.00;;;;347132;28;83425;-85
2022/11/15 08:30:48;;;;;;;;;;;12.90;99.90;13.20;98937.00;;;;347106;28;86133;-85
2022/11/15 08:31:00;;;;;;;;;;;12.90;99.90;13.20;98933.00;;;;347096;28;83540;-85
2022/11/15 08:31:16;;;;;;;;;;;12.90;99.90;13.30;98943.00;;;;345685;28;84961;-85
2022/11/15 08:31:28;;;;;;;;;;;12.90;99.90;13.30;98938.00;;;;345637;28;83300;-85
2022/11/15 08:31:39;;;;;;;;;;;12.90;99.90;13.30;98938.00;;;;344489;28;84082;-85
2022/11/15 08:31:51;;;;;;;;;;;13.00;99.90;13.30;98938.00;;;;345828;28;83488;-85
2022/11/15 08:32:04;;;;;;;;;;;13.00;99.90;13.30;98941.00;;;;346909;28;87651;-85
2022/11/15 08:32:17;;;;;;;;;;;13.00;99.90;13.20;98940.00;;;;345908;28;83477;-85
2022/11/15 08:32:30;;;;;;;;;;;13.00;99.90;13.20;98941.00;;;;348308;27;87447;-85
2022/11/15 08:32:42;;;;;;;;;;;13.00;99.90;13.20;98936.00;;;;348316;27;83693;-85
2022/11/15 08:32:55;;;;;;;;;;;13.00;99.90;13.30;98943.00;;;;347328;28;85807;-85
2022/11/15 08:33:10;;;;;;;;;;;13.00;99.90;13.30;98944.00;;;;346048;28;82596;-85
2022/11/15 08:33:21;;;;;;;;;;;13.00;99.90;13.30;98928.00;;;;347434;28;85056;-86
2022/11/15 08:33:35;;;;;;;;;;;13.00;99.90;13.30;98935.00;;;;348860;27;83410;-85
2022/11/15 08:33:47;;;;;;;;;;;13.00;99.90;13.30;98938.00;;;;347319;28;86849;-85
2022/11/15 08:33:58;;;;;;;;;;;13.00;99.90;13.30;98935.00;;;;347404;28;83437;-85
2022/11/15 08:34:10;;;;;;;;;;;13.00;99.90;13.30;98939.00;;;;347302;28;84501;-85
2022/11/15 08:34:22;;;;;;;;;;;13.00;99.90;13.20;98941.00;;;;348699;27;83339;-85
2022/11/15 08:34:33;;;;;;;;;;;13.00;99.90;13.20;98932.00;;;;347336;28;84449;-85
2022/11/15 08:34:45;;;;;;;;;;;13.00;99.90;13.20;98939.00;;;;348517;27;82710;-86
2022/11/15 08:34:57;;;;;;;;;;;13.00;99.90;13.20;98937.00;;;;347373;28;86226;-86
2022/11/15 08:35:09;;;;;;;;;;;13.00;99.90;13.30;98940.00;;;;348628;27;82627;-85
2022/11/15 08:35:20;;;;;;;;;;;13.00;99.90;13.30;98930.00;;;;348705;27;86679;-86
2022/11/15 08:35:39;;;;;;;;;;;13.00;99.90;13.20;98935.00;;;;347339;28;82559;-85
2022/11/15 08:35:50;;;;;;;;;;;13.00;99.90;13.20;98940.00;;;;348782;27;84043;-86
2022/11/15 08:36:02;;;;;;;;;;;13.00;99.90;13.20;98939.00;;;;348799;27;83547;-85
2022/11/15 08:36:15;;;;;;;;;;;13.00;99.90;13.30;98940.00;;;;344323;28;84698;-85
2022/11/15 08:36:26;;;;;;;;;;;13.00;99.90;13.30;98941.00;;;;345416;28;83479;-85
2022/11/15 08:36:47;;;;;;;;;;;13.00;99.90;13.30;98944.00;;;;347106;28;85487;-85
2022/11/15 08:36:59;;;;;;;;;;;13.00;99.90;13.30;98937.00;;;;348388;27;82436;-85
2022/11/15 08:37:11;;;;;;;;;;;13.00;99.90;13.30;98939.00;;;;349749;27;87206;-85